Terminal Aerodrome Forecast
Issued by NWS Omaha/Valley, NE

Home | Current Version | Previous Version | Text Only | Print | Product List | Glossary On
Versions: 1 2 3 4 5 6 7 8 9 10 11 12 13 14 15 16 17 18 19 20 21 22 23 24 25 26 27 28 29 30 31 32 33 34 35 36 37 38
000
FTUS43 KOAX 182320
TAFLNK
TAF
KLNK 182320Z 1900/1924 16004KT P6SM OVC015
     FM190800 16004KT 5SM BR OVC015
      TEMPO 1908/1912 2SM BR OVC007
     FM191300 18005KT 3SM BR OVC007
     FM191700 18007KT P6SM OVC015
     FM192000 18009KT P6SM BKN025=

USA.gov is the U.S. government's official web portal to all federal, state and local government web resources and services.